createdAt,value
2023-03-03T00:00:25.268Z,65.86
2023-03-03T00:02:54.279Z,65.82
2023-03-03T00:05:22.540Z,66.12
2023-03-03T00:07:51.030Z,66.19
2023-03-03T00:10:20.908Z,66.12
2023-03-03T00:12:49.996Z,66.25
2023-03-03T00:15:20.782Z,66.35
2023-03-03T00:17:51.270Z,66.31
2023-03-03T00:20:24.614Z,66.29
2023-03-03T00:22:54.312Z,66.18
2023-03-03T00:25:30.986Z,66.05
2023-03-03T00:28:27.736Z,66.16
2023-03-03T00:31:00.793Z,65.92
2023-03-03T00:33:34.905Z,65.95
2023-03-03T00:36:37.768Z,65.78
2023-03-03T00:39:31.923Z,65.70
2023-03-03T00:42:00.789Z,65.82
2023-03-03T00:44:45.478Z,65.81
2023-03-03T00:47:52.564Z,65.40
2023-03-03T00:50:35.001Z,65.11
2023-03-03T00:53:12.326Z,65.13
2023-03-03T00:55:40.771Z,64.98
2023-03-03T00:58:10.153Z,65.06
2023-03-03T01:00:41.502Z,65.27
2023-03-03T01:03:14.933Z,65.05
2023-03-03T01:05:44.715Z,65.13
2023-03-03T01:08:14.127Z,65.00
2023-03-03T01:10:52.436Z,65.01
2023-03-03T01:13:26.400Z,65.18
2023-03-03T01:15:56.293Z,65.27
2023-03-03T01:18:24.748Z,65.37
2023-03-03T01:20:53.435Z,65.57
2023-03-03T01:23:28.885Z,65.37
2023-03-03T01:25:58.492Z,65.20
2023-03-03T01:28:26.777Z,65.27
2023-03-03T01:30:55.504Z,65.17
2023-03-03T01:33:23.858Z,65.16
2023-03-03T01:35:52.232Z,65.05
2023-03-03T01:38:21.122Z,65.21
2023-03-03T01:40:54.720Z,65.17
2023-03-03T01:43:23.714Z,65.06
2023-03-03T01:45:53.507Z,64.91
2023-03-03T01:48:26.324Z,65.21
2023-03-03T01:50:59.460Z,65.08
2023-03-03T01:53:48.613Z,65.29
2023-03-03T01:56:17.257Z,65.25
2023-03-03T01:59:01.615Z,65.13
2023-03-03T02:01:30.019Z,64.96
2023-03-03T02:04:01.038Z,65.07
2023-03-03T02:06:39.603Z,65.48
2023-03-03T02:09:12.503Z,65.75
2023-03-03T02:11:43.756Z,65.70
2023-03-03T02:14:13.543Z,65.78
2023-03-03T02:16:45.780Z,65.76
2023-03-03T02:19:53.592Z,65.89
2023-03-03T02:22:33.252Z,65.75
2023-03-03T02:25:02.846Z,65.90
2023-03-03T02:27:39.012Z,65.86
2023-03-03T02:30:23.572Z,65.88
2023-03-03T02:32:51.862Z,65.90
2023-03-03T02:35:31.422Z,65.65
2023-03-03T02:38:55.696Z,65.70
2023-03-03T02:41:59.201Z,65.59
2023-03-03T02:44:33.215Z,65.57
2023-03-03T02:47:02.004Z,65.51
2023-03-03T02:49:32.407Z,65.54
2023-03-03T02:52:01.286Z,65.45
2023-03-03T02:54:33.120Z,65.45
2023-03-03T02:57:02.920Z,65.56
2023-03-03T02:59:31.475Z,65.56
2023-03-03T03:02:03.336Z,65.51
2023-03-03T03:04:32.218Z,65.55
2023-03-03T03:07:02.559Z,65.67
2023-03-03T03:09:34.108Z,65.33
2023-03-03T03:12:04.123Z,65.38
2023-03-03T03:14:34.873Z,65.37
2023-03-03T03:17:03.551Z,65.43
2023-03-03T03:19:35.108Z,65.57
2023-03-03T03:22:04.412Z,65.39
2023-03-03T03:24:38.735Z,65.35
2023-03-03T03:27:09.099Z,65.41
2023-03-03T03:29:38.769Z,65.45
2023-03-03T03:32:07.548Z,65.35
2023-03-03T03:34:36.052Z,65.29
2023-03-03T03:37:13.642Z,65.27
2023-03-03T03:39:59.123Z,65.23
2023-03-03T03:42:28.048Z,65.38
2023-03-03T03:44:57.631Z,65.32
2023-03-03T03:47:26.113Z,65.38
2023-03-03T03:49:54.498Z,65.37
2023-03-03T03:52:22.879Z,65.22
2023-03-03T03:54:52.287Z,65.39
2023-03-03T03:57:21.173Z,65.07
2023-03-03T04:00:12.704Z,65.17
2023-03-03T04:02:46.014Z,65.12
2023-03-03T04:05:16.435Z,65.13
2023-03-03T04:07:45.880Z,65.06
2023-03-03T04:10:18.211Z,65.06
2023-03-03T04:12:46.899Z,65.01
2023-03-03T04:15:16.608Z,65.08
2023-03-03T04:17:47.656Z,64.94
2023-03-03T04:20:16.961Z,64.92
2023-03-03T04:22:48.212Z,64.81
2023-03-03T04:25:17.737Z,64.61
2023-03-03T04:27:51.320Z,64.58
2023-03-03T04:30:21.949Z,64.50
2023-03-03T04:32:51.560Z,64.61
2023-03-03T04:35:21.718Z,64.61
2023-03-03T04:37:50.169Z,64.58
2023-03-03T04:40:18.857Z,64.49
2023-03-03T04:42:49.100Z,64.56
2023-03-03T04:45:23.605Z,64.34
2023-03-03T04:47:52.292Z,64.60
2023-03-03T04:50:25.296Z,64.49
2023-03-03T04:52:55.512Z,64.62
2023-03-03T04:55:24.091Z,64.43
2023-03-03T04:57:54.316Z,64.54
2023-03-03T05:00:22.701Z,64.35
2023-03-03T05:02:51.200Z,64.45
2023-03-03T05:05:20.583Z,64.64
2023-03-03T05:07:48.858Z,64.77
2023-03-03T05:10:17.240Z,64.72
2023-03-03T05:12:45.516Z,64.86
2023-03-03T05:15:16.968Z,64.84
2023-03-03T05:17:46.174Z,64.92
2023-03-03T05:20:15.470Z,64.96
2023-03-03T05:22:44.875Z,64.97
2023-03-03T05:25:13.766Z,64.87
2023-03-03T05:27:44.403Z,65.01
2023-03-03T05:30:13.790Z,64.83
2023-03-03T05:32:47.097Z,64.99
2023-03-03T05:35:15.688Z,65.05
2023-03-03T05:37:48.058Z,65.08
2023-03-03T05:40:16.956Z,65.14
2023-03-03T05:42:46.907Z,65.02
2023-03-03T05:45:15.868Z,65.18
2023-03-03T05:47:44.969Z,65.15
2023-03-03T05:50:13.366Z,65.13
2023-03-03T05:52:41.736Z,65.00
2023-03-03T05:55:11.517Z,64.98
2023-03-03T05:57:42.485Z,65.17
2023-03-03T06:00:12.538Z,65.14
2023-03-03T06:02:42.611Z,65.05
2023-03-03T06:05:11.996Z,65.22
2023-03-03T06:07:40.420Z,65.07
2023-03-03T06:10:09.221Z,65.01
2023-03-03T06:12:45.373Z,65.00
2023-03-03T06:15:13.820Z,65.14
2023-03-03T06:17:44.601Z,64.93
2023-03-03T06:20:13.193Z,64.94
2023-03-03T06:22:42.282Z,64.86
2023-03-03T06:25:12.211Z,64.66
2023-03-03T06:27:41.388Z,64.62
2023-03-03T06:30:11.708Z,64.57
2023-03-03T06:32:40.348Z,64.41
2023-03-03T06:35:09.139Z,64.20
2023-03-03T06:37:38.699Z,64.17
2023-03-03T06:40:08.975Z,63.96
2023-03-03T06:42:39.483Z,63.62
2023-03-03T06:45:09.422Z,63.55
2023-03-03T06:47:38.148Z,63.56
2023-03-03T06:50:09.836Z,63.42
2023-03-03T06:52:38.320Z,63.34
2023-03-03T06:55:17.442Z,62.99
2023-03-03T06:57:50.537Z,63.08
2023-03-03T07:00:31.179Z,62.74
2023-03-03T07:03:02.353Z,62.67
2023-03-03T07:05:33.960Z,62.61
2023-03-03T07:08:03.005Z,62.05
2023-03-03T07:10:31.588Z,61.90
2023-03-03T07:13:24.761Z,61.63
2023-03-03T07:15:54.430Z,61.58
2023-03-03T07:18:42.519Z,61.41
2023-03-03T07:21:22.630Z,61.28
2023-03-03T07:23:54.336Z,61.16
2023-03-03T07:26:26.368Z,60.89
2023-03-03T07:28:55.875Z,60.69
2023-03-03T07:31:39.630Z,60.62
2023-03-03T07:34:24.725Z,60.47
2023-03-03T07:37:02.522Z,60.53
2023-03-03T07:39:34.301Z,60.05
2023-03-03T07:42:35.126Z,60.20
2023-03-03T07:45:39.968Z,59.96
2023-03-03T07:48:13.677Z,59.69
2023-03-03T07:50:42.569Z,59.62
2023-03-03T07:53:35.040Z,59.50
2023-03-03T07:56:31.244Z,59.47
2023-03-03T07:59:00.069Z,59.31
2023-03-03T08:01:48.691Z,59.10
2023-03-03T08:04:21.147Z,58.93
2023-03-03T08:06:53.371Z,58.82
2023-03-03T08:09:31.771Z,58.65
2023-03-03T08:12:06.787Z,58.73
2023-03-03T08:14:38.218Z,58.63
2023-03-03T08:17:20.265Z,58.67
2023-03-03T08:19:51.331Z,58.56
2023-03-03T08:22:25.699Z,58.40
2023-03-03T08:24:53.979Z,58.14
2023-03-03T08:27:22.356Z,58.00
2023-03-03T08:29:50.634Z,58.03
2023-03-03T08:32:19.103Z,57.74
2023-03-03T08:34:47.701Z,57.38
2023-03-03T08:37:16.903Z,56.94
2023-03-03T08:39:46.014Z,56.92
2023-03-03T08:42:16.230Z,56.45
2023-03-03T08:44:46.947Z,55.97
2023-03-03T08:47:15.451Z,55.58
2023-03-03T08:49:44.444Z,55.57
2023-03-03T08:52:12.932Z,55.55
2023-03-03T08:54:41.509Z,55.51
2023-03-03T08:57:10.206Z,54.91
2023-03-03T08:59:39.428Z,54.30
2023-03-03T09:02:08.129Z,54.04
2023-03-03T09:04:37.203Z,53.54
2023-03-03T09:07:05.667Z,53.33
2023-03-03T09:09:33.922Z,53.24
2023-03-03T09:12:17.379Z,52.91
2023-03-03T09:14:47.309Z,52.25
2023-03-03T09:17:42.408Z,51.82
2023-03-03T09:20:34.748Z,51.26
2023-03-03T09:23:39.479Z,50.47
2023-03-03T09:26:31.824Z,50.02
2023-03-03T09:29:15.773Z,50.17
2023-03-03T09:32:02.501Z,49.70
2023-03-03T09:34:49.403Z,49.35
2023-03-03T09:37:34.621Z,49.15
2023-03-03T09:40:19.509Z,48.67
2023-03-03T09:42:57.238Z,47.95
2023-03-03T09:45:37.504Z,47.76
2023-03-03T09:48:36.203Z,47.80
2023-03-03T09:51:23.419Z,47.54
2023-03-03T09:54:05.010Z,47.32
2023-03-03T09:56:35.690Z,47.39
2023-03-03T09:59:09.960Z,47.01
2023-03-03T10:01:54.010Z,47.00
2023-03-03T10:04:31.917Z,46.75
2023-03-03T10:07:28.434Z,46.67
2023-03-03T10:10:28.068Z,46.51
2023-03-03T10:13:41.727Z,46.54
2023-03-03T10:16:22.541Z,46.52
2023-03-03T10:19:02.894Z,46.20
2023-03-03T10:21:41.676Z,46.07
2023-03-03T10:24:31.990Z,46.01
2023-03-03T10:27:34.657Z,45.52
2023-03-03T10:30:05.229Z,45.50
2023-03-03T10:32:49.902Z,45.24
2023-03-03T10:35:18.620Z,44.93
2023-03-03T10:38:02.588Z,45.18
2023-03-03T10:40:42.538Z,45.22
2023-03-03T10:43:35.804Z,45.22
2023-03-03T10:46:25.602Z,45.19
2023-03-03T10:49:00.041Z,44.88
2023-03-03T10:51:57.882Z,44.67
2023-03-03T10:54:45.116Z,44.74
2023-03-03T10:57:31.623Z,44.16
2023-03-03T11:00:44.917Z,43.68
2023-03-03T11:04:09.940Z,42.76
2023-03-03T11:07:16.228Z,42.97
2023-03-03T11:09:53.059Z,42.18
2023-03-03T11:12:48.590Z,42.01
2023-03-03T11:16:15.191Z,42.32
2023-03-03T11:19:22.057Z,41.74
2023-03-03T11:22:15.547Z,41.11
2023-03-03T11:24:51.512Z,40.25
2023-03-03T11:27:48.958Z,40.14
2023-03-03T11:30:18.269Z,40.14
2023-03-03T11:32:51.342Z,40.28
2023-03-03T11:35:29.860Z,39.87
2023-03-03T11:38:05.005Z,40.03
2023-03-03T11:40:54.292Z,39.91
2023-03-03T11:43:36.105Z,39.56
2023-03-03T11:46:20.323Z,39.69
2023-03-03T11:48:58.356Z,40.17
2023-03-03T11:52:21.114Z,40.32
2023-03-03T11:55:14.457Z,40.51
2023-03-03T11:58:01.371Z,40.60
2023-03-03T12:00:59.138Z,40.89
2023-03-03T12:03:49.739Z,40.85
2023-03-03T12:06:25.128Z,41.20
2023-03-03T12:09:01.212Z,41.33
2023-03-03T12:11:37.621Z,41.26
2023-03-03T12:14:28.529Z,41.20
2023-03-03T12:16:59.984Z,41.52
2023-03-03T12:19:43.723Z,41.90
2023-03-03T12:22:18.284Z,42.04
2023-03-03T12:24:50.960Z,41.92
2023-03-03T12:27:49.741Z,41.76
2023-03-03T12:30:45.052Z,42.13
2023-03-03T12:33:23.043Z,42.54
2023-03-03T12:36:36.521Z,42.41
2023-03-03T12:39:34.798Z,42.55
2023-03-03T12:42:45.959Z,42.69
2023-03-03T12:45:32.266Z,42.95
2023-03-03T12:48:02.069Z,42.84
2023-03-03T12:50:56.251Z,42.69
2023-03-03T12:54:15.289Z,42.70
2023-03-03T12:56:51.368Z,42.54
2023-03-03T12:59:44.405Z,42.52
2023-03-03T13:02:32.487Z,42.29
2023-03-03T13:05:33.722Z,41.68
2023-03-03T13:08:37.388Z,41.61
2023-03-03T13:11:44.651Z,41.47
2023-03-03T13:14:32.537Z,41.00
2023-03-03T13:17:49.626Z,41.21
2023-03-03T13:20:38.431Z,41.55
2023-03-03T13:24:05.013Z,41.90
2023-03-03T13:27:42.001Z,42.32
2023-03-03T13:45:37.000Z,46.15
2023-03-03T13:48:09.864Z,46.62
2023-03-03T13:50:46.750Z,47.04
2023-03-03T13:53:43.610Z,47.58
2023-03-03T13:56:59.119Z,48.23
2023-03-03T14:00:41.079Z,48.92
2023-03-03T14:03:50.413Z,49.50
2023-03-03T14:06:28.635Z,49.69
2023-03-03T14:09:42.147Z,49.70
2023-03-03T14:12:30.269Z,50.03
2023-03-03T14:15:24.355Z,50.17
2023-03-03T14:18:30.236Z,50.29
2023-03-03T14:21:42.049Z,50.57
2023-03-03T14:24:45.188Z,50.50
2023-03-03T14:28:02.184Z,50.50
2023-03-03T14:30:57.485Z,50.50
2023-03-03T14:34:21.440Z,50.46
2023-03-03T14:37:26.169Z,50.41
2023-03-03T14:40:10.182Z,50.37
2023-03-03T14:43:08.186Z,50.39
2023-03-03T14:45:38.654Z,50.37
2023-03-03T14:48:19.284Z,50.24
2023-03-03T14:50:51.468Z,50.22
2023-03-03T14:53:19.832Z,50.13
2023-03-03T14:55:50.523Z,50.13
2023-03-03T14:58:40.794Z,50.22
2023-03-03T15:01:17.641Z,50.25
2023-03-03T15:03:58.444Z,50.39
2023-03-03T15:06:34.594Z,50.35
2023-03-03T15:09:51.609Z,50.41
2023-03-03T15:12:37.360Z,50.36
2023-03-03T15:15:16.660Z,50.45
2023-03-03T15:17:55.453Z,50.50
2023-03-03T15:20:42.681Z,50.57
2023-03-03T15:23:33.077Z,50.50
2023-03-03T15:26:20.711Z,50.55
2023-03-03T15:28:55.538Z,50.51
2023-03-03T15:31:39.269Z,50.49
2023-03-03T15:34:43.814Z,50.39
2023-03-03T15:37:23.554Z,50.38
2023-03-03T15:40:13.132Z,50.35
2023-03-03T15:43:10.765Z,50.40
2023-03-03T15:46:15.973Z,50.41
2023-03-03T15:48:47.297Z,50.50
2023-03-03T15:51:16.088Z,50.49
2023-03-03T15:54:12.930Z,50.60
2023-03-03T15:56:48.173Z,50.55
2023-03-03T15:59:22.320Z,50.60
2023-03-03T16:01:56.844Z,50.80
2023-03-03T16:04:26.425Z,50.79
2023-03-03T16:07:28.026Z,50.91
2023-03-03T16:10:06.033Z,50.96
2023-03-03T16:13:01.815Z,51.00
2023-03-03T16:15:50.837Z,51.07
2023-03-03T16:18:38.115Z,51.11
2023-03-03T16:21:40.278Z,51.14
2023-03-03T16:25:40.309Z,51.24
2023-03-03T16:28:18.622Z,51.26
2023-03-03T16:30:57.040Z,51.33
2023-03-03T16:33:44.398Z,51.37
2023-03-03T16:36:18.997Z,51.37
2023-03-03T16:38:59.669Z,51.37
2023-03-03T16:41:43.355Z,51.45
2023-03-03T16:44:11.786Z,51.52
2023-03-03T16:46:45.395Z,51.50
2023-03-03T16:49:27.834Z,51.53
2023-03-03T16:52:11.340Z,51.65
2023-03-03T16:54:56.340Z,51.74
2023-03-03T16:57:48.059Z,51.71
2023-03-03T17:00:23.255Z,51.87
2023-03-03T17:03:15.122Z,51.99
2023-03-03T17:06:04.608Z,52.04
2023-03-03T17:08:41.873Z,52.10
2023-03-03T17:11:13.327Z,52.19
2023-03-03T17:13:49.183Z,52.21
2023-03-03T17:16:52.702Z,52.32
2023-03-03T17:19:41.953Z,52.42
2023-03-03T17:22:19.355Z,52.47
2023-03-03T17:25:04.916Z,52.56
2023-03-03T17:27:47.648Z,52.47
2023-03-03T17:30:44.607Z,52.48
2023-03-03T17:33:33.400Z,52.43
2023-03-03T17:36:07.590Z,52.34
2023-03-03T17:38:53.572Z,52.36
2023-03-03T17:41:24.210Z,52.30
2023-03-03T17:43:58.422Z,52.29
2023-03-03T17:46:38.899Z,52.37
2023-03-03T17:49:41.480Z,52.34
2023-03-03T17:52:17.225Z,52.74
2023-03-03T17:55:08.034Z,52.90
2023-03-03T17:57:51.699Z,53.14
2023-03-03T18:00:38.080Z,53.26
2023-03-03T18:03:09.337Z,53.35
2023-03-03T18:06:06.485Z,53.44
2023-03-03T18:08:47.576Z,53.48
2023-03-03T18:11:30.997Z,53.73
2023-03-03T18:14:08.924Z,53.83
2023-03-03T18:16:42.822Z,53.92
2023-03-03T18:19:39.254Z,53.96
2023-03-03T18:22:23.101Z,53.83
2023-03-03T18:24:53.628Z,53.93
2023-03-03T18:27:33.387Z,53.92
2023-03-03T18:30:07.928Z,54.02
2023-03-03T18:32:42.801Z,54.18
2023-03-03T18:35:33.406Z,54.22
2023-03-03T18:38:16.952Z,54.34
2023-03-03T18:41:01.947Z,54.51
2023-03-03T18:43:41.190Z,54.60
2023-03-03T18:46:11.383Z,54.80
2023-03-03T18:48:51.873Z,55.11
2023-03-03T18:51:38.166Z,55.22
2023-03-03T18:54:21.401Z,55.45
2023-03-03T18:57:04.114Z,55.74
2023-03-03T18:59:41.916Z,55.93
2023-03-03T19:02:13.285Z,56.18
2023-03-03T19:04:47.515Z,56.05
2023-03-03T19:07:26.741Z,56.25
2023-03-03T19:09:59.068Z,56.36
2023-03-03T19:12:58.074Z,56.44
2023-03-03T19:15:36.026Z,56.76
2023-03-03T19:18:21.427Z,57.04
2023-03-03T19:21:07.673Z,57.26
2023-03-03T19:24:00.472Z,57.41
2023-03-03T19:26:32.395Z,57.68
2023-03-03T19:29:26.373Z,57.79
2023-03-03T19:31:57.150Z,57.84
2023-03-03T19:34:32.934Z,58.07
2023-03-03T19:37:29.315Z,58.02
2023-03-03T19:40:31.687Z,58.18
2023-03-03T19:43:16.560Z,58.18
2023-03-03T19:45:57.629Z,58.27
2023-03-03T19:48:49.464Z,58.46
2023-03-03T19:51:30.238Z,58.59
2023-03-03T19:54:46.139Z,58.77
2023-03-03T19:57:37.552Z,58.83
2023-03-03T20:00:47.819Z,58.84
2023-03-03T20:03:40.977Z,58.89
2023-03-03T20:06:24.818Z,58.80
2023-03-03T20:08:59.139Z,58.87
2023-03-03T20:12:02.133Z,58.89
2023-03-03T20:14:44.777Z,59.06
2023-03-03T20:17:32.377Z,59.22
2023-03-03T20:20:27.997Z,59.44
2023-03-03T20:23:38.063Z,59.35
2023-03-03T20:26:09.308Z,59.39
2023-03-03T20:29:02.262Z,59.38
2023-03-03T20:31:52.620Z,59.43
2023-03-03T20:34:33.946Z,59.65
2023-03-03T20:37:39.599Z,59.51
2023-03-03T20:40:20.986Z,59.89
2023-03-03T20:42:58.687Z,59.85
2023-03-03T20:45:29.788Z,59.94
2023-03-03T20:48:32.316Z,59.99
2023-03-03T20:51:05.320Z,60.08
2023-03-03T20:53:52.635Z,60.10
2023-03-03T20:56:53.579Z,59.97
2023-03-03T20:59:42.032Z,59.87
2023-03-03T21:02:50.960Z,59.88
2023-03-03T21:05:20.891Z,59.83
2023-03-03T21:07:58.679Z,59.91
2023-03-03T21:10:34.154Z,59.95
2023-03-03T21:13:26.373Z,59.86
2023-03-03T21:16:02.245Z,59.99
2023-03-03T21:18:32.041Z,60.07
2023-03-03T21:21:01.034Z,60.18
2023-03-03T21:23:29.630Z,60.15
2023-03-03T21:26:47.182Z,60.32
2023-03-03T21:29:21.574Z,60.70
2023-03-03T21:32:09.638Z,60.87
2023-03-03T21:34:39.345Z,61.17
2023-03-03T21:37:12.785Z,61.49
2023-03-03T21:39:45.815Z,61.64
2023-03-03T21:42:15.845Z,61.74
2023-03-03T21:44:50.031Z,62.05
2023-03-03T21:47:20.222Z,62.23
2023-03-03T21:50:00.538Z,62.17
2023-03-03T21:52:29.328Z,62.38
2023-03-03T21:54:57.815Z,62.57
2023-03-03T21:57:27.129Z,62.64
2023-03-03T21:59:57.871Z,62.70
2023-03-03T22:02:26.360Z,62.63
2023-03-03T22:04:54.766Z,62.78
2023-03-03T22:07:23.196Z,62.86
2023-03-03T22:09:52.092Z,62.99
2023-03-03T22:12:20.266Z,63.05
2023-03-03T22:14:49.687Z,63.14
2023-03-03T22:17:19.500Z,63.36
2023-03-03T22:19:47.851Z,63.29
2023-03-03T22:22:20.139Z,63.51
2023-03-03T22:24:50.262Z,63.57
2023-03-03T22:27:19.125Z,63.74
2023-03-03T22:29:47.542Z,63.87
2023-03-03T22:32:15.849Z,64.13
2023-03-03T22:34:44.207Z,64.10
2023-03-03T22:37:12.795Z,64.24
2023-03-03T22:39:41.178Z,64.49
2023-03-03T22:42:11.289Z,64.41
2023-03-03T22:44:40.514Z,64.76
2023-03-03T22:47:08.980Z,64.82
2023-03-03T22:49:37.459Z,65.02
2023-03-03T22:52:05.746Z,64.97
2023-03-03T22:54:34.633Z,65.25
2023-03-03T22:57:03.317Z,65.23
2023-03-03T22:59:32.929Z,65.34
2023-03-03T23:02:01.836Z,65.44
2023-03-03T23:04:33.253Z,65.43
2023-03-03T23:07:02.676Z,65.52
2023-03-03T23:09:33.716Z,65.56
2023-03-03T23:12:07.756Z,65.62
2023-03-03T23:14:36.926Z,65.76
2023-03-03T23:17:05.614Z,65.67
2023-03-03T23:19:37.271Z,65.94
2023-03-03T23:22:05.653Z,65.80
2023-03-03T23:24:34.046Z,65.99
2023-03-03T23:27:08.971Z,66.10
2023-03-03T23:29:38.272Z,66.24
2023-03-03T23:32:07.595Z,66.47
2023-03-03T23:34:37.804Z,66.37
2023-03-03T23:37:08.544Z,66.52
2023-03-03T23:39:37.025Z,66.60
2023-03-03T23:42:05.592Z,66.67
2023-03-03T23:44:34.504Z,66.69
2023-03-03T23:47:09.746Z,66.79
2023-03-03T23:49:40.384Z,66.78
2023-03-03T23:52:09.280Z,66.95
2023-03-03T23:54:38.161Z,66.97
2023-03-03T23:57:08.398Z,67.08
2023-03-03T23:59:36.876Z,67.19
